createdAt,value
2023-01-21T00:00:46.056Z,33.05
2023-01-21T00:01:45.967Z,33.05
2023-01-21T00:02:45.891Z,33.06
2023-01-21T00:03:45.934Z,33.04
2023-01-21T00:04:45.729Z,33.04
2023-01-21T00:05:45.649Z,33.01
2023-01-21T00:06:45.577Z,33.03
2023-01-21T01:28:38.893Z,32.69
2023-01-21T01:29:38.843Z,32.66
2023-01-21T01:30:38.743Z,32.68
2023-01-21T01:31:38.737Z,32.68
2023-01-21T01:32:38.567Z,32.67
2023-01-21T01:33:38.492Z,32.66
2023-01-21T01:34:38.398Z,32.65
2023-01-21T01:35:38.325Z,32.69
2023-01-21T01:36:38.246Z,32.66
2023-01-21T01:37:38.160Z,32.64
2023-01-21T01:38:38.080Z,32.68
2023-01-21T01:39:37.993Z,32.67
2023-01-21T01:40:37.917Z,32.66
2023-01-21T01:41:37.854Z,32.67
2023-01-21T01:42:37.761Z,32.64
2023-01-21T01:43:37.671Z,32.62
2023-01-21T01:44:37.597Z,32.64
2023-01-21T01:45:37.507Z,32.62
2023-01-21T01:46:37.474Z,32.63
2023-01-21T01:47:37.333Z,32.66
2023-01-21T01:48:37.256Z,32.63
2023-01-21T01:49:37.184Z,32.63
2023-01-21T01:50:37.096Z,32.61
2023-01-21T01:51:37.023Z,32.62
2023-01-21T01:52:36.932Z,32.60
2023-01-21T01:53:36.848Z,32.57
2023-01-21T01:54:36.768Z,32.61
2023-01-21T01:55:36.687Z,32.62
2023-01-21T01:56:36.601Z,32.61
2023-01-21T01:57:36.527Z,32.59
2023-01-21T01:58:36.442Z,32.59
2023-01-21T01:59:36.371Z,32.60
2023-01-21T02:00:36.289Z,32.58
2023-01-21T02:01:36.238Z,32.59
2023-01-21T02:02:36.134Z,32.56
2023-01-21T02:03:36.056Z,32.55
2023-01-21T02:04:35.966Z,32.59
2023-01-21T02:05:35.895Z,32.53
2023-01-21T02:06:35.818Z,32.58
2023-01-21T02:07:35.739Z,32.59
2023-01-21T02:08:35.661Z,32.54
2023-01-21T02:09:35.581Z,32.50
2023-01-21T02:10:35.516Z,32.49
2023-01-21T03:53:27.300Z,32.19
2023-01-21T03:54:27.232Z,32.21
2023-01-21T03:55:27.165Z,32.20
2023-01-21T03:56:27.097Z,32.18
2023-01-21T03:57:27.010Z,32.19
2023-01-21T03:58:26.927Z,32.20
2023-01-21T03:59:26.859Z,32.15
2023-01-21T04:00:26.768Z,32.18
2023-01-21T04:01:26.694Z,32.16
2023-01-21T04:02:26.615Z,32.20
2023-01-21T04:03:26.531Z,32.19
2023-01-21T04:04:26.457Z,32.19
2023-01-21T04:05:26.390Z,32.16
2023-01-21T04:06:26.314Z,32.13
2023-01-21T04:07:26.245Z,32.16
2023-01-21T04:08:26.182Z,32.15
2023-01-21T04:09:26.099Z,32.16
2023-01-21T04:10:26.032Z,32.13
2023-01-21T04:11:25.944Z,32.16
2023-01-21T04:12:25.866Z,32.16
2023-01-21T04:13:25.791Z,32.13
2023-01-21T04:14:25.694Z,32.13
2023-01-21T04:15:25.618Z,32.14
2023-01-21T04:16:25.582Z,32.12
2023-01-21T05:22:20.156Z,31.95
2023-01-21T05:23:20.075Z,31.95
2023-01-21T05:24:20.000Z,31.94
2023-01-21T05:25:19.910Z,31.90
2023-01-21T05:26:19.834Z,31.95
2023-01-21T05:27:19.769Z,31.90
2023-01-21T05:28:19.692Z,31.94
2023-01-21T05:29:19.606Z,31.93
2023-01-21T05:30:19.526Z,31.93
2023-01-21T05:31:19.553Z,31.92
2023-01-21T05:32:19.365Z,31.93
2023-01-21T05:33:19.299Z,31.91
2023-01-21T05:34:19.210Z,31.93
2023-01-21T05:35:19.145Z,31.91
2023-01-21T05:36:19.055Z,31.90
2023-01-21T05:37:18.989Z,31.88
2023-01-21T05:38:18.878Z,31.89
2023-01-21T05:39:18.801Z,31.87
2023-01-21T05:40:19.136Z,31.89
2023-01-21T05:41:18.651Z,31.88
2023-01-21T05:42:18.560Z,31.88
2023-01-21T05:43:18.488Z,31.89
2023-01-21T05:44:18.412Z,31.84
2023-01-21T05:45:18.320Z,31.84
2023-01-21T05:46:18.304Z,31.87
2023-01-21T05:47:18.167Z,31.87
2023-01-21T05:48:18.086Z,31.87
2023-01-21T05:49:18.001Z,31.86
2023-01-21T05:50:18.284Z,31.85
2023-01-21T05:51:17.895Z,31.83
2023-01-21T05:52:17.811Z,31.85
2023-01-21T05:53:17.733Z,31.88
2023-01-21T05:54:17.652Z,31.87
2023-01-21T05:55:17.649Z,31.81
2023-01-21T05:56:17.470Z,31.86
2023-01-21T05:57:17.409Z,31.82
2023-01-21T05:58:17.310Z,31.79
2023-01-21T05:59:17.225Z,31.81
2023-01-21T06:00:17.466Z,31.82
2023-01-21T06:01:17.074Z,31.81
2023-01-21T06:02:17.067Z,31.82
2023-01-21T06:03:16.927Z,31.82
2023-01-21T06:04:16.821Z,31.81
2023-01-21T06:05:16.759Z,31.79
2023-01-21T06:06:16.679Z,31.79
2023-01-21T06:07:16.587Z,31.78
2023-01-21T06:08:16.506Z,31.81
2023-01-21T06:09:16.418Z,31.82
2023-01-21T06:10:16.655Z,31.79
2023-01-21T06:11:16.272Z,31.80
2023-01-21T06:12:16.201Z,31.79
2023-01-21T06:13:16.124Z,31.82
2023-01-21T06:14:16.034Z,31.80
2023-01-21T06:15:15.958Z,31.77
2023-01-21T06:16:15.878Z,31.81
2023-01-21T06:17:15.789Z,31.80
2023-01-21T06:18:15.719Z,31.79
2023-01-21T06:19:15.621Z,31.82
2023-01-21T06:20:15.859Z,31.77
2023-01-21T07:36:09.728Z,31.63
2023-01-21T07:37:09.708Z,31.63
2023-01-21T07:38:09.600Z,31.63
2023-01-21T07:39:09.516Z,31.59
2023-01-21T07:40:09.433Z,31.58
2023-01-21T07:41:09.363Z,31.57
2023-01-21T07:42:09.277Z,31.57
2023-01-21T07:43:09.210Z,31.60
2023-01-21T07:44:09.131Z,31.57
2023-01-21T07:45:09.053Z,31.59
2023-01-21T07:46:09.009Z,31.60
2023-01-21T07:47:08.900Z,31.57
2023-01-21T07:48:08.813Z,31.56
2023-01-21T07:49:08.748Z,31.56
2023-01-21T07:50:08.912Z,31.58
2023-01-21T07:51:08.642Z,31.59
2023-01-21T07:52:08.516Z,31.56
2023-01-21T07:53:08.450Z,31.57
2023-01-21T07:54:08.370Z,31.57
2023-01-21T07:55:09.239Z,31.57
2023-01-21T07:56:08.225Z,31.55
2023-01-21T07:57:08.155Z,31.57
2023-01-21T07:58:08.074Z,31.59
2023-01-21T07:59:07.991Z,31.58
2023-01-21T08:00:07.921Z,31.55
2023-01-21T08:01:07.854Z,31.54
2023-01-21T08:02:07.841Z,31.55
2023-01-21T08:03:07.690Z,31.54
2023-01-21T08:04:07.604Z,31.56
2023-01-21T08:05:07.540Z,31.57
2023-01-21T08:06:07.452Z,31.54
2023-01-21T08:07:07.392Z,31.56
2023-01-21T08:08:07.331Z,31.55
2023-01-21T08:09:07.261Z,31.53
2023-01-21T08:10:07.188Z,31.53
2023-01-21T08:11:07.109Z,31.52
2023-01-21T08:12:07.034Z,31.54
2023-01-21T08:13:06.941Z,31.51
2023-01-21T08:14:06.874Z,31.52
2023-01-21T08:15:06.792Z,31.49
2023-01-21T08:16:06.767Z,31.50
2023-01-21T08:17:06.656Z,31.50
2023-01-21T08:18:06.586Z,31.52
2023-01-21T08:19:06.504Z,31.49
2023-01-21T08:20:06.425Z,31.51
2023-01-21T08:21:06.341Z,31.48
2023-01-21T08:22:06.280Z,31.48
2023-01-21T08:23:06.203Z,31.49
2023-01-21T08:24:06.131Z,31.49
2023-01-21T08:25:06.042Z,31.48
2023-01-21T08:26:05.963Z,31.49
2023-01-21T08:27:05.888Z,31.50
2023-01-21T08:28:05.819Z,31.48
2023-01-21T08:29:05.746Z,31.49
2023-01-21T08:30:05.667Z,31.49
2023-01-21T08:31:05.781Z,31.48
2023-01-21T08:32:05.506Z,31.50
2023-01-21T08:42:04.722Z,31.44
2023-01-21T08:44:04.572Z,31.48
2023-01-21T08:45:04.498Z,31.46
2023-01-21T08:46:04.480Z,31.46
2023-01-21T08:47:04.349Z,31.43
2023-01-21T08:48:04.284Z,31.46
2023-01-21T08:49:04.196Z,31.43
2023-01-21T08:50:04.129Z,31.45
2023-01-21T08:51:04.087Z,31.44
2023-01-21T08:52:03.970Z,31.41
2023-01-21T08:53:03.883Z,31.42
2023-01-21T08:54:03.815Z,31.43
2023-01-21T08:55:03.740Z,31.40
2023-01-21T08:56:03.662Z,31.40
2023-01-21T08:57:03.587Z,31.42
2023-01-21T08:58:03.515Z,31.40
2023-01-21T08:59:03.424Z,31.38
2023-01-21T09:00:03.341Z,31.41
2023-01-21T09:01:03.288Z,31.39
2023-01-21T09:02:03.238Z,31.39
2023-01-21T09:03:03.123Z,31.40
2023-01-21T09:04:03.048Z,31.39
2023-01-21T09:05:02.955Z,31.39
2023-01-21T09:06:02.884Z,31.39
2023-01-21T09:07:02.805Z,31.40
2023-01-21T09:08:02.729Z,31.39
2023-01-21T09:09:02.651Z,31.38
2023-01-21T10:00:58.643Z,31.33
2023-01-21T10:01:58.556Z,31.34
2023-01-21T10:02:58.491Z,31.32
2023-01-21T10:03:58.404Z,31.34
2023-01-21T10:04:58.335Z,31.32
2023-01-21T10:05:58.271Z,31.33
2023-01-21T10:06:58.187Z,31.32
2023-01-21T10:07:58.127Z,31.32
2023-01-21T10:08:58.033Z,31.34
2023-01-21T10:09:57.964Z,31.32
2023-01-21T10:10:57.876Z,31.32
2023-01-21T10:11:57.806Z,31.32
2023-01-21T10:12:57.724Z,31.33
2023-01-21T10:13:57.653Z,31.32
2023-01-21T10:14:57.577Z,31.31
2023-01-21T10:15:57.506Z,31.33
2023-01-21T10:16:57.472Z,31.32
2023-01-21T10:17:57.352Z,31.31
2023-01-21T10:18:57.290Z,31.31
2023-01-21T10:19:57.211Z,31.31
2023-01-21T10:20:57.128Z,31.27
2023-01-21T10:21:57.074Z,31.29
2023-01-21T10:22:56.980Z,31.30
2023-01-21T10:23:56.923Z,31.29
2023-01-21T10:24:56.848Z,31.29
2023-01-21T10:25:56.751Z,31.31
2023-01-21T10:26:56.671Z,31.29
2023-01-21T10:27:56.607Z,31.28
2023-01-21T10:28:56.544Z,31.28
2023-01-21T10:29:56.461Z,31.29
2023-01-21T10:30:56.470Z,31.29
2023-01-21T10:31:56.311Z,31.30
2023-01-21T10:32:56.244Z,31.27
2023-01-21T10:33:56.168Z,31.29
2023-01-21T10:34:56.078Z,31.28
2023-01-21T10:35:56.007Z,31.30
2023-01-21T10:36:55.927Z,31.29
2023-01-21T10:37:55.854Z,31.29
2023-01-21T10:38:55.774Z,31.29
2023-01-21T10:39:55.708Z,31.29
2023-01-21T10:40:55.635Z,31.31
2023-01-21T10:41:55.565Z,31.29
2023-01-21T11:37:51.349Z,31.18
2023-01-21T11:38:51.277Z,31.20
2023-01-21T11:39:51.200Z,31.19
2023-01-21T12:47:46.089Z,31.09
2023-01-21T12:48:45.994Z,31.09
2023-01-21T12:49:45.918Z,31.08
2023-01-21T12:50:45.899Z,31.08
2023-01-21T12:51:45.761Z,31.08
2023-01-21T12:52:45.681Z,31.09
2023-01-21T12:53:45.621Z,31.09
2023-01-21T12:54:45.536Z,31.10
2023-01-21T13:51:41.312Z,31.04
2023-01-21T13:52:41.285Z,31.04
2023-01-21T13:53:41.161Z,31.06
2023-01-21T13:54:41.084Z,31.03
2023-01-21T13:55:41.012Z,31.06
2023-01-21T13:56:40.936Z,31.02
2023-01-21T13:57:40.852Z,31.03
2023-01-21T13:58:40.793Z,31.06
2023-01-21T13:59:40.720Z,31.05
2023-01-21T14:00:40.676Z,31.06
2023-01-21T14:01:40.628Z,31.06
2023-01-21T14:02:40.503Z,31.05
2023-01-21T14:03:40.428Z,31.04
2023-01-21T14:04:40.349Z,31.03
2023-01-21T14:05:40.266Z,31.03
2023-01-21T14:06:40.192Z,31.04
2023-01-21T14:07:40.128Z,31.00
2023-01-21T14:08:40.067Z,31.01
2023-01-21T14:09:39.987Z,31.02
2023-01-21T14:10:39.905Z,31.03
2023-01-21T14:11:39.834Z,31.01
2023-01-21T14:12:39.761Z,31.01
2023-01-21T14:13:39.681Z,31.01
2023-01-21T14:14:39.622Z,31.01
2023-01-21T14:15:39.530Z,31.01
2023-01-21T14:16:39.485Z,31.02
2023-01-21T14:17:39.385Z,31.00
2023-01-21T14:18:39.327Z,31.01
2023-01-21T14:19:39.238Z,31.02
2023-01-21T14:20:39.161Z,31.00
2023-01-21T14:21:39.087Z,31.02
2023-01-21T14:22:39.021Z,31.01
2023-01-21T14:23:38.942Z,31.03
2023-01-21T14:24:38.875Z,31.01
2023-01-21T14:25:38.792Z,31.02
2023-01-21T14:26:38.710Z,30.99
2023-01-21T14:27:38.649Z,31.00
2023-01-21T14:28:38.605Z,30.97
2023-01-21T14:29:38.503Z,30.99
2023-01-21T14:30:38.466Z,31.00
2023-01-21T14:31:38.413Z,31.01
2023-01-21T14:32:38.279Z,30.99
2023-01-21T14:33:38.185Z,31.03
2023-01-21T14:34:38.116Z,31.03
2023-01-21T14:35:38.050Z,31.01
2023-01-21T14:36:37.997Z,31.01
2023-01-21T14:37:37.948Z,30.99
2023-01-21T14:38:37.904Z,31.05
2023-01-21T14:39:37.868Z,31.02
2023-01-21T14:40:37.795Z,31.01
2023-01-21T14:41:37.770Z,31.02
2023-01-21T14:42:37.959Z,31.02
2023-01-21T14:43:37.729Z,31.02
2023-01-21T14:44:37.694Z,31.01
2023-01-21T14:45:37.680Z,31.00
2023-01-21T14:46:37.591Z,31.00
2023-01-21T14:47:37.573Z,31.00
2023-01-21T14:48:37.544Z,31.02
2023-01-21T14:49:37.517Z,31.02
2023-01-21T14:50:37.495Z,31.01
2023-01-21T14:51:37.476Z,31.02
2023-01-21T14:52:39.267Z,31.03
2023-01-21T14:53:37.442Z,31.03
2023-01-21T14:54:37.422Z,31.02
2023-01-21T14:55:37.339Z,31.02
2023-01-21T14:56:37.264Z,31.00
2023-01-21T14:57:37.209Z,30.98
2023-01-21T14:58:37.128Z,31.01
2023-01-21T14:59:37.053Z,30.96
2023-01-21T15:00:37.023Z,30.99
2023-01-21T15:01:36.997Z,30.98
2023-01-21T15:02:36.889Z,30.98
2023-01-21T15:03:36.759Z,30.93
2023-01-21T15:04:36.748Z,31.00
2023-01-21T15:05:36.629Z,30.99
2023-01-21T15:06:36.549Z,31.00
2023-01-21T15:07:36.481Z,30.96
2023-01-21T15:08:36.400Z,31.01
2023-01-21T15:09:36.341Z,30.97
2023-01-21T15:10:36.255Z,31.00
2023-01-21T15:11:36.183Z,30.99
2023-01-21T15:12:36.113Z,30.99
2023-01-21T15:13:36.037Z,30.99
2023-01-21T15:14:35.969Z,30.98
2023-01-21T15:15:35.903Z,30.99
2023-01-21T15:16:35.896Z,30.99
2023-01-21T15:17:35.958Z,30.97
2023-01-21T15:18:36.875Z,31.02
2023-01-21T15:19:35.592Z,31.01
2023-01-21T15:23:35.252Z,30.96
2023-01-21T15:24:35.161Z,30.98
2023-01-21T15:25:35.074Z,30.98
2023-01-21T15:26:34.990Z,31.00
2023-01-21T15:27:34.888Z,30.99
2023-01-21T15:28:34.810Z,30.99
2023-01-21T15:29:34.724Z,30.96
2023-01-21T15:30:34.702Z,30.99
2023-01-21T15:31:34.640Z,30.98
2023-01-21T15:32:34.458Z,31.00
2023-01-21T15:33:34.356Z,30.97
2023-01-21T15:34:34.290Z,31.00
2023-01-21T15:35:34.211Z,30.98
2023-01-21T15:36:34.134Z,31.00
2023-01-21T15:37:34.066Z,30.99
2023-01-21T15:38:33.998Z,30.99
2023-01-21T15:39:33.932Z,30.97
2023-01-21T15:40:33.864Z,31.00
2023-01-21T15:41:33.805Z,30.99
2023-01-21T15:42:33.702Z,31.01
2023-01-21T15:43:33.635Z,31.00
2023-01-21T15:44:33.564Z,30.98
2023-01-21T15:45:33.485Z,30.97
2023-01-21T15:46:33.412Z,30.94
2023-01-21T16:05:32.061Z,30.93
2023-01-21T16:07:31.919Z,30.91
2023-01-21T16:08:31.862Z,30.89
2023-01-21T16:09:31.851Z,30.91
2023-01-21T16:10:31.727Z,30.89
2023-01-21T16:11:31.655Z,30.91
2023-01-21T16:12:31.597Z,30.90
2023-01-21T16:13:31.514Z,30.91
2023-01-21T16:14:31.454Z,30.89
2023-01-21T17:12:27.426Z,30.80
2023-01-21T17:13:27.359Z,30.81
2023-01-21T17:14:27.280Z,30.81
2023-01-21T17:15:27.261Z,30.77
2023-01-21T17:16:27.167Z,30.78
2023-01-21T17:17:27.088Z,30.80
2023-01-21T17:18:27.024Z,30.78
2023-01-21T17:19:26.935Z,30.79
2023-01-21T17:20:26.874Z,30.76
2023-01-21T17:21:26.818Z,30.81
2023-01-21T17:22:26.724Z,30.79
2023-01-21T17:23:26.671Z,30.79
2023-01-21T17:24:26.613Z,30.80
2023-01-21T17:25:26.516Z,30.82
2023-01-21T17:26:26.452Z,30.76
2023-01-21T17:27:26.471Z,30.80
2023-01-21T17:28:26.329Z,30.79
2023-01-21T17:29:26.256Z,30.79
2023-01-21T17:30:26.177Z,30.76
2023-01-21T17:31:26.226Z,30.80
2023-01-21T17:32:26.069Z,30.79
2023-01-21T17:33:25.990Z,30.76
2023-01-21T17:34:25.938Z,30.79
2023-01-21T17:35:25.861Z,30.79
2023-01-21T17:36:25.804Z,30.77
2023-01-21T17:37:25.739Z,30.78
2023-01-21T17:38:25.664Z,30.77
2023-01-21T17:39:25.599Z,30.80
2023-01-21T17:40:25.530Z,30.79
2023-01-21T18:40:21.860Z,30.78
2023-01-21T18:41:21.790Z,30.72
2023-01-21T18:42:21.717Z,30.74
2023-01-21T18:43:21.660Z,30.77
2023-01-21T18:44:21.609Z,30.78
2023-01-21T18:45:21.550Z,30.75
2023-01-21T18:46:21.525Z,30.76
2023-01-21T18:47:21.423Z,30.76
2023-01-21T18:48:21.385Z,30.77
2023-01-21T18:49:21.306Z,30.78
2023-01-21T20:40:05.518Z,30.64
2023-01-21T20:41:05.558Z,30.65
2023-01-21T20:42:05.583Z,30.66
2023-01-21T20:43:05.633Z,30.66
2023-01-21T20:44:05.665Z,30.66
2023-01-21T20:45:05.683Z,30.65
2023-01-21T20:46:05.849Z,30.66
2023-01-21T20:47:05.739Z,30.65
2023-01-21T20:48:05.798Z,30.65
2023-01-21T20:49:05.826Z,30.65
2023-01-21T20:50:05.858Z,30.66
2023-01-21T20:51:05.907Z,30.65
2023-01-21T20:52:05.919Z,30.64
2023-01-21T20:53:05.964Z,30.63
2023-01-21T20:54:05.992Z,30.64
2023-01-21T20:55:06.027Z,30.64
2023-01-21T20:56:06.057Z,30.62
2023-01-21T20:57:06.093Z,30.65
2023-01-21T20:58:06.136Z,30.64
2023-01-21T20:59:06.158Z,30.64
2023-01-21T21:00:06.205Z,30.64
2023-01-21T21:01:06.284Z,30.64
2023-01-21T21:02:06.286Z,30.63
2023-01-21T21:03:06.308Z,30.63
2023-01-21T21:04:06.332Z,30.65
2023-01-21T21:05:06.376Z,30.64
2023-01-21T21:06:06.420Z,30.62
2023-01-21T21:07:06.448Z,30.61
2023-01-21T21:08:06.503Z,30.61
2023-01-21T21:09:06.507Z,30.63
2023-01-21T21:10:06.542Z,30.61
2023-01-21T21:11:06.576Z,30.64
2023-01-21T21:12:06.603Z,30.62
2023-01-21T21:13:06.636Z,30.61
2023-01-21T21:14:06.689Z,30.60
2023-01-21T21:15:06.711Z,30.60
2023-01-21T21:16:06.765Z,30.61
2023-01-21T21:17:06.793Z,30.60
2023-01-21T21:18:06.842Z,30.61
2023-01-21T21:19:06.859Z,30.60
2023-01-21T21:20:06.913Z,30.60
2023-01-21T21:21:06.937Z,30.60
2023-01-21T21:22:06.970Z,30.57
2023-01-21T21:23:07.014Z,30.60
2023-01-21T21:24:07.060Z,30.59
2023-01-21T21:25:07.091Z,30.59
2023-01-21T21:26:07.131Z,30.56
2023-01-21T21:27:07.166Z,30.58
2023-01-21T21:28:07.211Z,30.58
2023-01-21T21:29:07.253Z,30.58
2023-01-21T21:30:07.298Z,30.59
2023-01-21T21:31:07.387Z,30.59
2023-01-21T21:32:07.450Z,30.59
2023-01-21T21:33:07.377Z,30.59
2023-01-21T21:34:07.422Z,30.59
2023-01-21T21:35:07.450Z,30.59
2023-01-21T21:36:07.488Z,30.57
2023-01-21T21:37:07.529Z,30.58
2023-01-21T21:49:07.973Z,30.57
2023-01-21T21:50:08.006Z,30.56
2023-01-21T21:51:08.139Z,30.57
2023-01-21T21:52:08.085Z,30.56
2023-01-21T21:53:08.332Z,30.56
2023-01-21T21:54:08.160Z,30.55
2023-01-21T21:55:08.196Z,30.54
2023-01-21T21:56:08.231Z,30.56
2023-01-21T21:57:08.268Z,30.55
2023-01-21T21:58:08.299Z,30.55
2023-01-21T21:59:08.355Z,30.54
2023-01-21T22:00:08.370Z,30.56
2023-01-21T22:01:08.484Z,30.56
2023-01-21T22:02:08.482Z,30.53
2023-01-21T22:03:08.482Z,30.54
2023-01-21T22:04:08.516Z,30.57
2023-01-21T22:05:08.585Z,30.54
2023-01-21T22:06:08.597Z,30.54
2023-01-21T22:07:08.630Z,30.54
2023-01-21T22:08:08.671Z,30.54
2023-01-21T22:09:08.720Z,30.52
2023-01-21T22:10:08.735Z,30.54
2023-01-21T22:11:08.770Z,30.53
2023-01-21T22:12:08.812Z,30.52
2023-01-21T22:13:08.839Z,30.53
2023-01-21T22:14:08.880Z,30.57
2023-01-21T22:15:08.909Z,30.53
2023-01-21T22:16:08.962Z,30.53
2023-01-21T22:17:08.997Z,30.55
2023-01-21T22:18:09.032Z,30.52
2023-01-21T22:19:09.068Z,30.54
2023-01-21T22:20:09.099Z,30.53
2023-01-21T22:21:09.129Z,30.54
2023-01-21T22:22:09.182Z,30.53
2023-01-21T22:23:09.198Z,30.52
2023-01-21T22:24:09.241Z,30.52
2023-01-21T22:25:09.277Z,30.53
2023-01-21T22:26:09.330Z,30.55
2023-01-21T22:27:09.350Z,30.54
2023-01-21T22:28:09.391Z,30.55
2023-01-21T22:29:09.424Z,30.52
2023-01-21T22:30:09.457Z,30.54
2023-01-21T22:31:09.555Z,30.53
2023-01-21T22:32:09.596Z,30.52
2023-01-21T22:33:09.562Z,30.54
2023-01-21T22:34:09.594Z,30.51
2023-01-21T22:35:09.643Z,30.53
2023-01-21T22:36:09.660Z,30.52
2023-01-21T22:37:09.703Z,30.54
2023-01-21T22:38:09.737Z,30.54
2023-01-21T22:39:09.780Z,30.52
2023-01-21T22:40:09.823Z,30.53
2023-01-21T22:41:09.857Z,30.52
2023-01-21T22:42:09.893Z,30.53
2023-01-21T22:43:09.915Z,30.53
2023-01-21T22:44:09.943Z,30.52
2023-01-21T22:45:09.995Z,30.53
2023-01-21T22:46:10.134Z,30.52
2023-01-21T22:47:10.060Z,30.50
2023-01-21T22:48:10.086Z,30.52
2023-01-21T22:49:10.117Z,30.52
2023-01-21T22:50:10.153Z,30.52
2023-01-21T22:51:10.231Z,30.52
2023-01-21T22:52:10.249Z,30.52
2023-01-21T22:53:10.267Z,30.51
2023-01-21T22:54:10.300Z,30.52
2023-01-21T22:55:10.339Z,30.52
2023-01-21T22:56:10.372Z,30.50
2023-01-21T22:57:10.415Z,30.51
2023-01-21T22:58:10.434Z,30.51
2023-01-21T22:59:10.477Z,30.49
2023-01-21T23:00:10.521Z,30.52
2023-01-21T23:01:10.588Z,30.50
2023-01-21T23:02:10.609Z,30.49
2023-01-21T23:03:10.641Z,30.49
2023-01-21T23:04:10.699Z,30.50
2023-01-21T23:05:10.904Z,30.48
2023-01-21T23:06:10.765Z,30.50
2023-01-21T23:07:10.800Z,30.50
2023-01-21T23:08:10.838Z,30.51
2023-01-21T23:09:11.648Z,30.50
2023-01-21T23:10:10.909Z,30.50
2023-01-21T23:11:10.957Z,30.48
2023-01-21T23:12:10.985Z,30.48
2023-01-21T23:13:11.014Z,30.46
2023-01-21T23:14:11.052Z,30.47
2023-01-21T23:15:11.098Z,30.47
2023-01-21T23:16:11.185Z,30.48
2023-01-21T23:17:11.169Z,30.47
2023-01-21T23:18:11.191Z,30.49
2023-01-21T23:19:11.240Z,30.48
2023-01-21T23:20:11.269Z,30.48
2023-01-21T23:21:11.312Z,30.46
2023-01-21T23:22:11.349Z,30.46
2023-01-21T23:23:11.397Z,30.47
2023-01-21T23:24:11.439Z,30.45
2023-01-21T23:25:11.478Z,30.45
2023-01-21T23:26:11.507Z,30.46
2023-01-21T23:27:11.551Z,30.46
2023-01-21T23:28:11.587Z,30.47
2023-01-21T23:29:11.616Z,30.44
2023-01-21T23:30:11.652Z,30.46
2023-01-21T23:31:11.785Z,30.46
2023-01-21T23:32:11.740Z,30.45
2023-01-21T23:33:11.783Z,30.46
2023-01-21T23:34:11.820Z,30.46
2023-01-21T23:35:11.868Z,30.46
2023-01-21T23:36:11.905Z,30.45
2023-01-21T23:37:11.944Z,30.45
2023-01-21T23:38:12.041Z,30.45
2023-01-21T23:39:12.006Z,30.46
2023-01-21T23:40:12.056Z,30.45
2023-01-21T23:41:12.098Z,30.44
2023-01-21T23:42:12.133Z,30.48
2023-01-21T23:43:12.166Z,30.44
2023-01-21T23:44:12.199Z,30.46
2023-01-21T23:45:12.242Z,30.44
2023-01-21T23:46:12.312Z,30.44
2023-01-21T23:47:12.315Z,30.47
2023-01-21T23:48:12.350Z,30.42
2023-01-21T23:49:12.387Z,30.43
2023-01-21T23:50:12.427Z,30.42
2023-01-21T23:51:12.534Z,30.43
2023-01-21T23:52:12.512Z,30.44
2023-01-21T23:53:12.538Z,30.42
2023-01-21T23:54:12.585Z,30.43
2023-01-21T23:55:12.629Z,30.43
2023-01-21T23:56:12.660Z,30.44
2023-01-21T23:57:12.711Z,30.43
2023-01-21T23:58:12.735Z,30.42
2023-01-21T23:59:12.774Z,30.43
